createdAt,value
2018-07-21T00:01:47.947Z,239.97
2018-07-21T00:04:18.872Z,236.20
2018-07-21T00:06:50.326Z,243.22
2018-07-21T00:09:21.354Z,221.47
2018-07-21T00:11:52.620Z,232.92
2018-07-21T00:14:23.629Z,232.67
2018-07-21T00:16:54.722Z,233.57
2018-07-21T00:22:29.540Z,221.93
2018-07-21T00:25:00.390Z,239.25
2018-07-21T00:27:31.590Z,233.43
2018-07-21T00:30:02.895Z,234.55
2018-07-21T00:32:34.113Z,234.70
2018-07-21T00:35:05.480Z,233.75
2018-07-21T00:37:36.362Z,230.30
2018-07-21T00:40:12.107Z,225.78
2018-07-21T00:42:43.106Z,235.35
2018-07-21T00:45:14.240Z,225.85
2018-07-21T00:47:46.166Z,233.70
2018-07-21T00:50:17.180Z,230.75
2018-07-21T00:52:48.143Z,240.32
2018-07-21T00:55:19.158Z,237.65
2018-07-21T00:57:50.123Z,226.00
2018-07-21T01:00:21.130Z,229.20
2018-07-21T01:02:52.282Z,231.72
2018-07-21T01:05:23.810Z,233.85
2018-07-21T01:07:54.967Z,235.72
2018-07-21T01:10:26.505Z,234.80
2018-07-21T01:12:57.567Z,245.25
2018-07-21T01:15:28.913Z,244.25
2018-07-21T01:17:59.819Z,234.60
2018-07-21T01:20:31.331Z,230.05
2018-07-21T01:23:03.282Z,223.32
2018-07-21T01:25:37.485Z,230.27
2018-07-21T01:28:10.037Z,227.10
2018-07-21T01:30:41.058Z,230.00
2018-07-21T01:33:12.911Z,231.50
2018-07-21T01:35:43.946Z,235.55
2018-07-21T01:38:15.188Z,232.20
2018-07-21T01:40:46.251Z,231.28
2018-07-21T01:43:17.408Z,229.57
2018-07-21T01:45:48.411Z,229.60
2018-07-21T01:48:19.351Z,228.67
2018-07-21T01:50:50.270Z,223.03
2018-07-21T01:53:25.870Z,219.75
2018-07-21T01:55:57.352Z,224.70
2018-07-21T01:58:28.426Z,228.47
2018-07-21T02:00:59.572Z,225.97
2018-07-21T02:03:30.855Z,229.78
2018-07-21T02:06:01.854Z,232.25
2018-07-21T02:08:34.291Z,239.63
2018-07-21T02:11:05.639Z,234.80
2018-07-21T02:13:37.676Z,222.10
2018-07-21T02:16:10.116Z,228.42
2018-07-21T02:18:41.105Z,223.97
2018-07-21T02:21:12.150Z,221.82
2018-07-21T02:23:43.524Z,221.47
2018-07-21T02:26:14.538Z,217.62
2018-07-21T02:28:45.732Z,226.60
2018-07-21T02:31:16.604Z,229.57
2018-07-21T02:33:47.670Z,223.20
2018-07-21T02:36:19.081Z,225.87
2018-07-21T02:38:50.150Z,232.10
2018-07-21T02:41:21.468Z,232.72
2018-07-21T02:43:52.375Z,225.60
2018-07-21T02:46:23.400Z,216.27
2018-07-21T02:48:54.409Z,219.85
2018-07-21T02:51:25.510Z,229.28
2018-07-21T02:53:56.563Z,224.35
2018-07-21T02:56:27.527Z,224.02
2018-07-21T02:58:58.566Z,221.75
2018-07-21T03:01:29.500Z,231.68
2018-07-21T03:04:00.543Z,272.98
2018-07-21T03:06:31.507Z,231.65
2018-07-21T03:09:02.685Z,226.02
2018-07-21T03:11:33.643Z,220.12
2018-07-21T03:14:04.691Z,223.22
2018-07-21T03:16:35.630Z,217.55
2018-07-21T03:19:06.456Z,214.68
2018-07-21T03:21:37.403Z,221.85
2018-07-21T03:24:08.363Z,227.65
2018-07-21T03:26:39.303Z,221.47
2018-07-21T03:29:10.417Z,226.12
2018-07-21T03:31:41.355Z,221.43
2018-07-21T03:34:12.359Z,222.55
2018-07-21T03:36:43.338Z,260.08
2018-07-21T03:39:14.410Z,228.05
2018-07-21T03:41:45.608Z,221.90
2018-07-21T03:44:17.119Z,225.28
2018-07-21T03:46:48.387Z,230.98
2018-07-21T03:49:19.456Z,228.52
2018-07-21T03:51:50.356Z,219.13
2018-07-21T03:54:21.459Z,220.57
2018-07-21T03:56:52.619Z,219.43
2018-07-21T03:59:24.581Z,221.77
2018-07-21T04:01:55.864Z,226.62
2018-07-21T04:04:28.575Z,226.00
2018-07-21T04:06:59.701Z,221.03
2018-07-21T04:09:41.699Z,226.05
2018-07-21T04:12:12.523Z,223.53
2018-07-21T04:14:43.440Z,228.15
2018-07-21T04:17:22.983Z,232.25
2018-07-21T04:19:54.226Z,222.80
2018-07-21T04:22:25.881Z,229.05
2018-07-21T04:24:57.074Z,228.60
2018-07-21T04:27:28.075Z,228.98
2018-07-21T04:29:59.052Z,232.03
2018-07-21T04:32:30.059Z,227.95
2018-07-21T04:35:01.142Z,225.95
2018-07-21T04:37:32.220Z,225.40
2018-07-21T04:40:03.794Z,228.02
2018-07-21T04:42:34.795Z,222.75
2018-07-21T04:45:05.735Z,227.00
2018-07-21T04:47:36.733Z,228.42
2018-07-21T04:50:10.152Z,227.97
2018-07-21T04:52:41.026Z,221.65
2018-07-21T04:55:13.387Z,227.87
2018-07-21T04:57:44.353Z,225.47
2018-07-21T05:00:15.618Z,242.22
2018-07-21T05:02:47.470Z,235.48
2018-07-21T05:05:18.423Z,225.75
2018-07-21T05:07:49.562Z,220.55
2018-07-21T05:10:20.487Z,225.75
2018-07-21T05:12:51.632Z,232.50
2018-07-21T05:15:22.750Z,223.15
2018-07-21T05:17:53.854Z,226.77
2018-07-21T05:20:24.724Z,234.32
2018-07-21T05:22:55.765Z,221.82
2018-07-21T05:25:28.347Z,226.02
2018-07-21T05:28:00.267Z,224.65
2018-07-21T05:30:32.080Z,225.93
2018-07-21T05:33:03.780Z,237.23
2018-07-21T05:35:35.774Z,225.15
2018-07-21T05:38:07.744Z,223.93
2018-07-21T05:40:39.864Z,220.60
2018-07-21T05:43:12.596Z,229.80
2018-07-21T05:45:43.952Z,230.65
2018-07-21T05:48:14.847Z,224.20
2018-07-21T05:50:45.811Z,233.90
2018-07-21T05:53:16.956Z,230.50
2018-07-21T05:55:47.891Z,222.48
2018-07-21T05:58:18.954Z,219.15
2018-07-21T06:00:50.119Z,230.20
2018-07-21T06:03:21.364Z,222.88
2018-07-21T06:05:52.360Z,232.83
2018-07-21T06:08:26.151Z,226.73
2018-07-21T06:10:57.164Z,227.03
2018-07-21T06:13:28.390Z,233.02
2018-07-21T06:15:59.581Z,223.53
2018-07-21T06:18:30.696Z,229.55
2018-07-21T06:21:02.191Z,235.65
2018-07-21T06:23:34.503Z,231.40
2018-07-21T06:26:05.502Z,241.57
2018-07-21T06:28:36.580Z,242.22
2018-07-21T06:31:07.744Z,248.20
2018-07-21T06:33:38.791Z,230.05
2018-07-21T06:36:11.226Z,229.82
2018-07-21T06:38:42.815Z,227.93
2018-07-21T06:41:13.903Z,220.88
2018-07-21T06:43:44.982Z,225.25
2018-07-21T06:46:15.994Z,232.32
2018-07-21T06:48:46.972Z,227.25
2018-07-21T06:51:18.931Z,231.55
2018-07-21T06:53:49.975Z,224.35
2018-07-21T06:56:20.952Z,223.72
2018-07-21T06:58:52.276Z,229.10
2018-07-21T07:01:23.585Z,227.82
2018-07-21T07:03:54.688Z,240.55
2018-07-21T07:06:26.343Z,239.17
2018-07-21T07:08:57.764Z,234.52
2018-07-21T07:11:29.118Z,236.07
2018-07-21T07:14:00.170Z,233.85
2018-07-21T07:16:31.553Z,239.50
2018-07-21T07:19:02.838Z,227.60
2018-07-21T07:21:34.024Z,226.67
2018-07-21T07:24:04.956Z,229.40
2018-07-21T07:26:35.932Z,233.10
2018-07-21T07:29:07.039Z,229.03
2018-07-21T07:31:38.083Z,227.97
2018-07-21T07:34:09.185Z,231.90
2018-07-21T07:36:40.317Z,228.05
2018-07-21T07:39:12.061Z,231.45
2018-07-21T07:41:42.887Z,225.25
2018-07-21T07:44:13.801Z,236.37
2018-07-21T07:46:45.326Z,225.47
2018-07-21T07:49:16.491Z,228.73
2018-07-21T07:51:47.373Z,234.00
2018-07-21T07:54:19.024Z,229.20
2018-07-21T07:56:50.088Z,225.47
2018-07-21T07:59:21.168Z,224.35
2018-07-21T08:01:52.736Z,231.32
2018-07-21T08:04:23.815Z,231.17
2018-07-21T08:06:54.848Z,232.45
2018-07-21T08:09:26.833Z,234.57
2018-07-21T08:11:58.032Z,241.78
2018-07-21T08:14:29.308Z,242.95
2018-07-21T08:17:00.323Z,238.95
2018-07-21T08:19:31.383Z,248.00
2018-07-21T08:22:03.564Z,242.68
2018-07-21T08:24:34.568Z,247.48
2018-07-21T08:27:05.380Z,242.80
2018-07-21T08:29:36.383Z,251.73
2018-07-21T08:32:07.695Z,238.70
2018-07-21T08:34:38.573Z,245.20
2018-07-21T08:37:10.026Z,232.83
2018-07-21T08:39:41.181Z,223.62
2018-07-21T08:42:12.397Z,229.57
2018-07-21T08:44:43.408Z,234.55
2018-07-21T08:47:15.065Z,238.47
2018-07-21T08:49:47.143Z,232.35
2018-07-21T08:52:18.047Z,232.12
2018-07-21T08:54:50.618Z,230.50
2018-07-21T08:57:21.707Z,225.15
2018-07-21T08:59:52.923Z,237.90
2018-07-21T09:02:23.967Z,235.72
2018-07-21T09:04:55.234Z,232.37
2018-07-21T09:07:26.034Z,248.22
2018-07-21T09:09:57.255Z,239.42
2018-07-21T09:12:28.551Z,237.02
2018-07-21T09:14:59.667Z,242.55
2018-07-21T09:17:30.696Z,232.43
2018-07-21T09:20:01.786Z,244.03
2018-07-21T09:22:32.759Z,238.72
2018-07-21T09:25:04.052Z,239.78
2018-07-21T09:27:35.185Z,238.75
2018-07-21T09:30:06.393Z,244.77
2018-07-21T09:32:37.623Z,255.80
2018-07-21T09:35:11.172Z,241.60
2018-07-21T09:37:42.152Z,240.37
2018-07-21T09:40:13.543Z,239.12
2018-07-21T09:42:44.432Z,231.55
2018-07-21T09:45:17.476Z,237.42
2018-07-21T09:47:48.469Z,225.65
2018-07-21T09:50:19.948Z,229.15
2018-07-21T09:52:50.940Z,233.07
2018-07-21T09:55:21.988Z,241.10
2018-07-21T09:57:52.980Z,251.98
2018-07-21T10:00:29.219Z,236.05
2018-07-21T10:03:02.356Z,242.37
2018-07-21T10:05:33.921Z,242.72
2018-07-21T10:08:06.697Z,281.95
2018-07-21T10:10:38.133Z,256.75
2018-07-21T10:13:11.165Z,253.80
2018-07-21T10:15:41.817Z,242.10
2018-07-21T10:18:13.138Z,245.48
2018-07-21T10:20:44.048Z,238.00
2018-07-21T10:23:14.869Z,242.15
2018-07-21T10:25:51.128Z,236.62
2018-07-21T10:28:27.115Z,239.65
2018-07-21T10:30:58.162Z,228.60
2018-07-21T10:33:29.109Z,241.57
2018-07-21T10:36:00.203Z,233.02
2018-07-21T10:38:31.111Z,241.42
2018-07-21T10:41:03.230Z,235.30
2018-07-21T10:43:37.868Z,237.97
2018-07-21T10:46:09.633Z,238.80
2018-07-21T10:48:40.686Z,240.10
2018-07-21T10:51:11.715Z,238.95
2018-07-21T10:53:43.082Z,280.80
2018-07-21T10:56:14.651Z,247.35
2018-07-21T10:58:45.863Z,243.65
2018-07-21T11:01:16.827Z,235.20
2018-07-21T11:03:47.787Z,238.70
2018-07-21T11:06:19.023Z,239.82
2018-07-21T11:08:50.185Z,246.87
2018-07-21T11:11:21.330Z,250.87
2018-07-21T11:13:52.888Z,234.40
2018-07-21T11:16:24.036Z,246.50
2018-07-21T11:18:56.066Z,235.85
2018-07-21T11:21:27.670Z,240.43
2018-07-21T11:23:58.721Z,245.67
2018-07-21T11:26:29.788Z,245.05
2018-07-21T11:29:01.104Z,255.52
2018-07-21T11:31:32.334Z,245.22
2018-07-21T11:34:03.627Z,243.82
2018-07-21T11:36:34.592Z,245.55
2018-07-21T11:39:07.667Z,245.30
2018-07-21T11:41:38.483Z,234.37
2018-07-21T11:44:10.331Z,235.25
2018-07-21T11:46:41.227Z,237.00
2018-07-21T11:49:12.613Z,233.20
2018-07-21T11:51:43.720Z,231.07
2018-07-21T11:54:15.105Z,235.82
2018-07-21T11:56:46.308Z,242.62
2018-07-21T11:59:17.444Z,249.90
2018-07-21T12:01:48.804Z,236.82
2018-07-21T12:04:19.782Z,236.35
2018-07-21T12:06:50.649Z,272.60
2018-07-21T12:09:21.605Z,262.70
2018-07-21T12:11:52.597Z,270.60
2018-07-21T12:14:24.080Z,247.70
2018-07-21T12:16:55.476Z,260.32
2018-07-21T12:19:26.824Z,250.95
2018-07-21T12:21:57.977Z,246.40
2018-07-21T12:24:29.190Z,258.68
2018-07-21T12:27:01.172Z,247.95
2018-07-21T12:29:32.164Z,251.82
2018-07-21T12:32:04.243Z,257.32
2018-07-21T12:34:35.889Z,256.32
2018-07-21T12:37:07.492Z,277.30
2018-07-21T12:39:38.475Z,250.07
2018-07-21T12:42:09.829Z,261.85
2018-07-21T12:44:41.906Z,258.82
2018-07-21T12:47:13.053Z,241.50
2018-07-21T12:49:44.119Z,256.00
2018-07-21T12:52:15.566Z,247.45
2018-07-21T12:54:46.967Z,248.43
2018-07-21T12:57:18.956Z,252.07
2018-07-21T12:59:56.284Z,250.80
2018-07-21T13:02:30.568Z,251.05
2018-07-21T13:05:02.224Z,250.78
2018-07-21T13:07:34.029Z,250.05
2018-07-21T13:10:06.896Z,247.95
2018-07-21T13:12:38.244Z,237.85
2018-07-21T13:15:09.659Z,249.50
2018-07-21T13:17:40.987Z,244.60
2018-07-21T13:20:13.973Z,238.80
2018-07-21T13:22:45.544Z,239.17
2018-07-21T13:25:16.696Z,250.55
2018-07-21T13:27:47.822Z,249.85
2018-07-21T13:30:18.835Z,248.57
2018-07-21T13:32:49.754Z,249.90
2018-07-21T13:35:22.893Z,244.65
2018-07-21T13:38:02.238Z,234.75
2018-07-21T13:40:35.040Z,238.68
2018-07-21T13:43:07.491Z,238.92
2018-07-21T13:45:38.710Z,227.80
2018-07-21T13:48:10.857Z,242.77
2018-07-21T13:50:41.842Z,237.60
2018-07-21T13:53:13.406Z,238.18
2018-07-21T13:55:44.420Z,237.78
2018-07-21T13:58:15.646Z,234.40
2018-07-21T14:00:46.916Z,233.38
2018-07-21T14:03:17.953Z,235.38
2018-07-21T14:05:48.971Z,237.82
2018-07-21T14:08:20.301Z,234.30
2018-07-21T14:10:51.744Z,234.92
2018-07-21T14:13:22.994Z,227.45
2018-07-21T14:15:53.867Z,236.22
2018-07-21T14:18:24.853Z,228.80
2018-07-21T14:20:57.109Z,235.70
2018-07-21T14:23:29.099Z,234.05
2018-07-21T14:26:00.773Z,239.68
2018-07-21T14:28:32.671Z,241.85
2018-07-21T14:31:03.721Z,227.75
2018-07-21T14:33:34.978Z,227.80
2018-07-21T14:36:06.180Z,229.68
2018-07-21T14:38:37.140Z,237.53
2018-07-21T14:41:08.190Z,230.27
2018-07-21T14:43:39.255Z,234.15
2018-07-21T14:46:10.369Z,232.27
2018-07-21T14:48:41.436Z,234.87
2018-07-21T14:51:16.417Z,247.42
2018-07-21T14:53:49.846Z,237.53
2018-07-21T14:56:22.169Z,231.38
2018-07-21T14:58:53.343Z,232.85
2018-07-21T15:01:24.542Z,232.83
2018-07-21T15:03:55.814Z,236.65
2018-07-21T15:06:26.838Z,237.25
2018-07-21T15:08:58.420Z,245.82
2018-07-21T15:11:30.215Z,233.47
2018-07-21T15:14:02.183Z,258.13
2018-07-21T15:16:33.896Z,243.30
2018-07-21T15:19:05.557Z,237.60
2018-07-21T15:21:38.877Z,249.02
2018-07-21T15:24:11.618Z,259.50
2018-07-21T15:26:44.348Z,231.40
2018-07-21T15:29:17.504Z,243.30
2018-07-21T15:31:55.099Z,242.68
2018-07-21T15:34:28.103Z,236.05
2018-07-21T15:36:59.407Z,245.02
2018-07-21T15:39:31.175Z,237.02
2018-07-21T15:42:04.463Z,247.45
2018-07-21T15:44:36.048Z,253.02
2018-07-21T15:47:07.624Z,260.50
2018-07-21T15:49:38.884Z,257.98
2018-07-21T15:52:11.621Z,245.02
2018-07-21T15:54:43.373Z,248.68
2018-07-21T15:57:14.999Z,236.70
2018-07-21T15:59:46.576Z,229.38
2018-07-21T16:02:19.101Z,242.72
2018-07-21T16:04:50.232Z,233.20
2018-07-21T16:07:21.667Z,227.97
2018-07-21T16:09:53.291Z,237.53
2018-07-21T16:12:24.728Z,240.62
2018-07-21T16:14:56.004Z,227.62
2018-07-21T16:17:27.228Z,234.85
2018-07-21T16:19:58.882Z,243.57
2018-07-21T16:22:30.450Z,234.18
2018-07-21T16:25:03.421Z,232.85
2018-07-21T16:27:35.070Z,234.15
2018-07-21T16:30:06.869Z,228.22
2018-07-21T16:32:40.588Z,244.57
2018-07-21T16:35:14.923Z,242.53
2018-07-21T16:37:47.314Z,237.75
2018-07-21T16:40:19.431Z,239.50
2018-07-21T16:42:51.011Z,251.58
2018-07-21T16:45:22.487Z,253.83
2018-07-21T16:47:53.900Z,244.62
2018-07-21T16:50:25.183Z,236.43
2018-07-21T16:52:57.457Z,233.63
2018-07-21T16:55:29.106Z,233.47
2018-07-21T16:58:04.452Z,229.35
2018-07-21T17:00:36.985Z,233.53
2018-07-21T17:03:10.073Z,235.48
2018-07-21T17:05:41.724Z,251.45
2018-07-21T17:08:13.407Z,239.08
2018-07-21T17:10:45.046Z,240.00
2018-07-21T17:13:16.969Z,233.53
2018-07-21T17:15:48.332Z,238.18
2018-07-21T17:18:19.643Z,254.70
2018-07-21T17:20:51.902Z,247.48
2018-07-21T17:23:23.512Z,247.42
2018-07-21T17:25:55.417Z,248.10
2018-07-21T17:28:27.006Z,240.65
2018-07-21T17:30:58.856Z,249.32
2018-07-21T17:33:30.759Z,269.27
2018-07-21T17:36:01.901Z,247.12
2018-07-21T17:38:33.615Z,237.65
2018-07-21T17:41:05.074Z,238.40
2018-07-21T17:43:40.939Z,240.70
2018-07-21T17:46:19.863Z,239.78
2018-07-21T17:48:52.642Z,243.48
2018-07-21T17:51:24.079Z,239.27
2018-07-21T17:54:09.340Z,228.45
2018-07-21T17:56:41.134Z,221.13
2018-07-21T17:59:12.680Z,251.25
2018-07-21T18:01:44.207Z,230.15
2018-07-21T18:04:15.880Z,229.87
2018-07-21T18:06:46.999Z,234.55
2018-07-21T18:09:18.456Z,230.27
2018-07-21T18:11:50.513Z,234.18
2018-07-21T18:14:22.087Z,239.93
2018-07-21T18:16:53.480Z,234.65
2018-07-21T18:19:24.787Z,244.45
2018-07-21T18:21:56.030Z,243.33
2018-07-21T18:24:27.467Z,253.25
2018-07-21T18:26:59.224Z,275.90
2018-07-21T18:29:30.588Z,271.32
2018-07-21T18:32:03.199Z,262.25
2018-07-21T18:34:34.520Z,242.05
2018-07-21T18:37:05.882Z,239.08
2018-07-21T18:39:38.036Z,234.20
2018-07-21T18:42:09.885Z,233.35
2018-07-21T18:44:41.255Z,234.03
2018-07-21T18:47:12.589Z,233.82
2018-07-21T18:49:43.960Z,240.22
2018-07-21T18:52:15.621Z,248.97
2018-07-21T18:54:48.384Z,247.50
2018-07-21T18:57:19.817Z,251.15
2018-07-21T18:59:51.022Z,247.55
2018-07-21T19:02:22.673Z,241.15
2018-07-21T19:04:53.998Z,249.47
2018-07-21T19:07:25.849Z,237.68
2018-07-21T19:09:57.355Z,242.10
2018-07-21T19:12:33.652Z,285.85
2018-07-21T19:15:05.992Z,253.15
2018-07-21T19:17:37.432Z,240.57
2018-07-21T19:20:14.091Z,232.70
2018-07-21T19:22:45.512Z,237.82
2018-07-21T19:25:23.818Z,230.47
2018-07-21T19:27:55.968Z,240.60
2018-07-21T19:30:27.435Z,247.63
2018-07-21T19:32:59.186Z,243.75
2018-07-21T19:35:31.983Z,240.72
2018-07-21T19:38:04.544Z,235.63
2018-07-21T19:40:36.092Z,223.62
2018-07-21T19:43:08.301Z,227.90
2018-07-21T19:45:40.662Z,245.20
2018-07-21T19:48:13.084Z,238.92
2018-07-21T19:50:44.458Z,240.57
2018-07-21T19:53:16.075Z,239.00
2018-07-21T19:55:48.213Z,230.77
2018-07-21T19:58:19.977Z,231.65
2018-07-21T20:00:51.344Z,232.75
2018-07-21T20:03:22.813Z,233.43
2018-07-21T20:06:00.298Z,292.68
2018-07-21T20:08:32.036Z,282.17
2018-07-21T20:11:03.471Z,272.52
2018-07-21T20:13:34.812Z,259.48
2018-07-21T20:16:06.603Z,243.05
2018-07-21T20:18:38.460Z,240.80
2018-07-21T20:21:09.684Z,237.23
2018-07-21T20:23:41.171Z,238.25
2018-07-21T20:26:12.427Z,235.90
2018-07-21T20:28:44.214Z,229.90
2018-07-21T20:31:15.986Z,231.82
2018-07-21T20:33:47.398Z,246.82
2018-07-21T20:36:18.556Z,244.20
2018-07-21T20:38:49.752Z,237.78
2018-07-21T20:41:21.491Z,239.85
2018-07-21T20:43:53.055Z,245.35
2018-07-21T20:46:25.062Z,228.10
2018-07-21T20:48:56.501Z,227.40
2018-07-21T20:51:28.212Z,239.10
2018-07-21T20:54:00.271Z,236.68
2018-07-21T20:56:31.772Z,238.05
2018-07-21T20:59:03.216Z,239.88
2018-07-21T21:01:34.642Z,240.03
2018-07-21T21:04:06.459Z,233.90
2018-07-21T21:06:38.458Z,230.57
2018-07-21T21:09:11.396Z,232.00
2018-07-21T21:11:42.876Z,231.30
2018-07-21T21:14:14.689Z,234.72
2018-07-21T21:16:45.976Z,228.15
2018-07-21T21:19:17.360Z,231.87
2018-07-21T21:21:48.993Z,230.47
2018-07-21T21:24:20.407Z,234.03
2018-07-21T21:26:51.745Z,229.40
2018-07-21T21:29:23.590Z,222.37
2018-07-21T21:31:54.847Z,238.45
2018-07-21T21:34:26.041Z,229.23
2018-07-21T21:36:57.579Z,219.87
2018-07-21T21:39:28.887Z,225.65
2018-07-21T21:42:00.190Z,224.50
2018-07-21T21:44:33.096Z,229.87
2018-07-21T21:47:04.407Z,221.97
2018-07-21T21:49:35.612Z,225.95
2018-07-21T21:52:06.883Z,219.62
2018-07-21T21:54:38.320Z,226.42
2018-07-21T21:57:09.746Z,218.82
2018-07-21T21:59:41.068Z,221.13
2018-07-21T22:02:13.038Z,225.90
2018-07-21T22:04:44.408Z,223.78
2018-07-21T22:07:15.740Z,216.27
2018-07-21T22:09:47.710Z,216.23
2018-07-21T22:12:19.027Z,225.38
2018-07-21T22:14:50.103Z,230.27
2018-07-21T22:17:21.340Z,224.02
2018-07-21T22:19:53.290Z,230.30
2018-07-21T22:22:24.333Z,234.60
2018-07-21T22:24:55.133Z,222.52
2018-07-21T22:27:26.002Z,218.67
2018-07-21T22:29:57.299Z,234.12
2018-07-21T22:32:28.212Z,232.03
2018-07-21T22:34:59.248Z,228.05
2018-07-21T22:37:30.446Z,222.40
2018-07-21T22:40:02.051Z,225.65
2018-07-21T22:42:33.174Z,227.25
2018-07-21T22:45:04.446Z,218.75
2018-07-21T22:47:35.418Z,227.65
2018-07-21T22:50:07.955Z,218.07
2018-07-21T22:52:40.253Z,229.15
2018-07-21T22:55:14.005Z,216.93
2018-07-21T22:57:45.003Z,223.45
2018-07-21T23:00:16.170Z,220.93
2018-07-21T23:02:47.325Z,217.37
2018-07-21T23:05:18.666Z,221.28
2018-07-21T23:07:50.108Z,228.75
2018-07-21T23:10:21.431Z,225.60
2018-07-21T23:12:53.146Z,221.57
2018-07-21T23:15:24.480Z,229.23
2018-07-21T23:17:55.502Z,220.40
2018-07-21T23:20:31.449Z,219.28
2018-07-21T23:23:07.707Z,237.15
2018-07-21T23:25:39.212Z,227.60
2018-07-21T23:28:12.662Z,225.60
2018-07-21T23:30:43.607Z,234.72
2018-07-21T23:33:15.129Z,225.62
2018-07-21T23:35:46.912Z,218.95
2018-07-21T23:38:19.287Z,224.62
2018-07-21T23:40:50.539Z,235.60
2018-07-21T23:43:21.835Z,239.75
2018-07-21T23:45:53.134Z,221.35
2018-07-21T23:48:24.270Z,232.40
2018-07-21T23:50:55.741Z,231.68
2018-07-21T23:53:27.479Z,225.07
2018-07-21T23:55:59.111Z,228.60
2018-07-21T23:58:31.142Z,226.90
